createdAt,value
2018-10-12T00:00:37.731Z,32.90
2018-10-12T00:03:06.629Z,24.83
2018-10-12T00:05:35.061Z,26.13
2018-10-12T00:08:03.532Z,25.70
2018-10-12T00:10:31.940Z,25.60
2018-10-12T00:13:00.502Z,25.83
2018-10-12T00:15:28.901Z,26.87
2018-10-12T00:17:57.948Z,25.73
2018-10-12T00:20:26.388Z,25.27
2018-10-12T00:22:54.835Z,24.77
2018-10-12T00:25:23.416Z,28.23
2018-10-12T00:27:51.955Z,23.70
2018-10-12T00:30:20.450Z,29.07
2018-10-12T00:32:48.842Z,26.70
2018-10-12T00:35:17.291Z,24.40
2018-10-12T00:37:45.738Z,29.17
2018-10-12T00:40:14.215Z,25.20
2018-10-12T00:42:42.720Z,28.17
2018-10-12T00:45:11.145Z,27.13
2018-10-12T00:47:39.655Z,30.50
2018-10-12T00:50:08.112Z,26.40
2018-10-12T00:52:36.523Z,28.95
2018-10-12T00:55:04.998Z,25.77
2018-10-12T00:57:33.422Z,30.93
2018-10-12T01:00:01.926Z,29.07
2018-10-12T01:02:30.358Z,28.23
2018-10-12T01:04:58.824Z,28.97
2018-10-12T01:07:27.249Z,26.33
2018-10-12T01:09:55.816Z,29.75
2018-10-12T01:12:36.652Z,31.87
2018-10-12T01:15:05.441Z,29.30
2018-10-12T01:17:34.600Z,28.50
2018-10-12T01:20:03.492Z,24.50
2018-10-12T01:22:32.001Z,30.33
2018-10-12T01:25:01.918Z,30.20
2018-10-12T01:27:30.716Z,33.70
2018-10-12T01:29:59.183Z,30.00
2018-10-12T01:32:33.071Z,27.43
2018-10-12T01:35:01.519Z,29.85
2018-10-12T01:37:30.001Z,24.50
2018-10-12T01:39:58.496Z,26.00
2018-10-12T01:42:26.926Z,26.30
2018-10-12T01:44:55.703Z,29.87
2018-10-12T01:47:24.174Z,25.20
2018-10-12T01:49:52.736Z,28.42
2018-10-12T01:52:21.161Z,26.65
2018-10-12T01:54:50.520Z,28.87
2018-10-12T01:57:19.085Z,27.77
2018-10-12T01:59:47.805Z,26.87
2018-10-12T02:02:16.237Z,27.67
2018-10-12T02:04:45.090Z,31.33
2018-10-12T02:07:13.701Z,29.93
2018-10-12T02:09:42.243Z,30.83
2018-10-12T02:12:10.664Z,26.20
2018-10-12T02:14:39.123Z,33.17
2018-10-12T02:17:07.635Z,26.10
2018-10-12T02:19:36.188Z,30.97
2018-10-12T02:22:04.700Z,30.35
2018-10-12T02:24:33.124Z,27.90
2018-10-12T02:27:01.568Z,33.35
2018-10-12T02:29:30.038Z,26.73
2018-10-12T02:31:58.511Z,30.53
2018-10-12T02:34:27.067Z,26.53
2018-10-12T02:36:55.917Z,26.30
2018-10-12T02:39:24.332Z,26.10
2018-10-12T02:41:52.819Z,33.47
2018-10-12T02:44:21.276Z,26.70
2018-10-12T02:46:49.712Z,29.92
2018-10-12T02:49:18.137Z,36.13
2018-10-12T02:51:46.558Z,30.80
2018-10-12T02:54:14.979Z,32.93
2018-10-12T02:56:43.445Z,33.07
2018-10-12T02:59:11.879Z,30.70
2018-10-12T03:01:40.505Z,31.40
2018-10-12T03:04:08.946Z,28.83
2018-10-12T03:06:38.066Z,28.63
2018-10-12T03:09:08.743Z,26.33
2018-10-12T03:11:37.160Z,26.87
2018-10-12T03:14:06.052Z,29.40
2018-10-12T03:16:34.576Z,30.47
2018-10-12T03:19:03.077Z,29.20
2018-10-12T03:21:31.664Z,34.53
2018-10-12T03:24:00.073Z,27.07
2018-10-12T03:26:28.604Z,31.05
2018-10-12T03:28:57.061Z,33.07
2018-10-12T03:36:25.921Z,35.98
2018-10-12T03:38:54.424Z,34.83
2018-10-12T03:41:23.772Z,36.63
2018-10-12T03:43:52.246Z,41.37
2018-10-12T03:46:20.725Z,35.90
2018-10-12T03:48:49.170Z,35.53
2018-10-12T03:51:17.601Z,34.90
2018-10-12T03:53:46.112Z,42.90
2018-10-12T03:56:14.586Z,44.70
2018-10-12T03:58:43.037Z,35.53
2018-10-12T04:01:11.447Z,42.33
2018-10-12T04:03:39.852Z,38.95
2018-10-12T04:06:08.501Z,40.17
2018-10-12T04:08:38.307Z,44.15
2018-10-12T04:11:06.944Z,38.98
2018-10-12T04:13:35.592Z,44.90
2018-10-12T04:16:04.103Z,38.30
2018-10-12T04:18:32.546Z,41.67
2018-10-12T04:21:00.951Z,42.62
2018-10-12T04:23:29.431Z,46.58
2018-10-12T04:25:58.497Z,38.90
2018-10-12T04:28:26.969Z,36.20
2018-10-12T04:30:55.476Z,42.98
2018-10-12T04:33:23.984Z,37.53
2018-10-12T04:35:54.508Z,48.67
2018-10-12T04:38:23.014Z,39.23
2018-10-12T04:41:02.677Z,42.60
2018-10-12T04:43:31.699Z,41.93
2018-10-12T04:46:01.256Z,42.48
2018-10-12T04:48:30.212Z,36.50
2018-10-12T04:50:59.093Z,35.83
2018-10-12T04:53:27.497Z,32.33
2018-10-12T04:55:55.940Z,36.23
2018-10-12T04:58:24.405Z,38.83
2018-10-12T05:00:52.962Z,40.17
2018-10-12T05:03:21.388Z,41.30
2018-10-12T05:05:49.832Z,37.20
2018-10-12T05:08:18.447Z,36.77
2018-10-12T05:10:46.857Z,38.67
2018-10-12T05:13:15.306Z,38.43
2018-10-12T05:15:43.853Z,37.70
2018-10-12T05:18:21.334Z,41.10
2018-10-12T05:20:49.784Z,40.17
2018-10-12T05:23:21.818Z,44.67
2018-10-12T05:25:50.355Z,37.20
2018-10-12T05:28:18.852Z,41.85
2018-10-12T05:30:47.308Z,35.90
2018-10-12T05:33:15.749Z,35.63
2018-10-12T05:35:44.473Z,35.97
2018-10-12T05:38:12.993Z,41.17
2018-10-12T05:40:41.609Z,37.90
2018-10-12T05:43:11.573Z,39.33
2018-10-12T05:45:39.839Z,38.80
2018-10-12T05:48:19.517Z,39.80
2018-10-12T05:50:47.947Z,33.00
2018-10-12T05:53:16.498Z,33.00
2018-10-12T05:55:45.895Z,32.40
2018-10-12T05:58:14.414Z,32.60
2018-10-12T06:00:42.881Z,35.70
2018-10-12T06:03:11.248Z,33.90
2018-10-12T06:05:40.066Z,33.00
2018-10-12T06:08:08.467Z,36.65
2018-10-12T06:10:36.852Z,33.83
2018-10-12T06:13:05.312Z,33.77
2018-10-12T06:15:33.714Z,33.73
2018-10-12T06:18:02.117Z,34.87
2018-10-12T06:20:30.543Z,33.97
2018-10-12T06:22:58.942Z,30.27
2018-10-12T06:25:27.365Z,32.40
2018-10-12T06:27:55.794Z,30.77
2018-10-12T06:30:24.152Z,31.10
2018-10-12T06:32:52.665Z,31.77
2018-10-12T06:35:21.011Z,37.87
2018-10-12T06:37:49.441Z,30.23
2018-10-12T06:40:17.877Z,26.07
2018-10-12T06:42:46.223Z,34.00
2018-10-12T06:45:14.636Z,27.62
2018-10-12T06:47:43.799Z,30.05
2018-10-12T06:50:12.165Z,28.80
2018-10-12T06:52:40.577Z,28.45
2018-10-12T06:55:09.288Z,30.95
2018-10-12T06:57:37.700Z,29.53
2018-10-12T07:00:06.492Z,27.67
2018-10-12T07:02:34.781Z,27.55
2018-10-12T07:05:03.304Z,30.17
2018-10-12T07:07:31.753Z,29.90
2018-10-12T07:10:00.156Z,34.30
2018-10-12T07:12:28.604Z,37.60
2018-10-12T07:14:57.084Z,30.97
2018-10-12T07:17:25.527Z,36.65
2018-10-12T07:19:54.010Z,39.23
2018-10-12T07:22:22.537Z,40.63
2018-10-12T07:24:51.000Z,40.77
2018-10-12T07:27:19.419Z,34.33
2018-10-12T07:29:47.824Z,38.77
2018-10-12T07:32:16.245Z,39.53
2018-10-12T07:34:44.748Z,40.03
2018-10-12T07:37:13.207Z,37.40
2018-10-12T07:39:41.516Z,45.52
2018-10-12T07:42:09.920Z,39.10
2018-10-12T07:44:38.334Z,43.33
2018-10-12T07:47:06.740Z,48.40
2018-10-12T07:49:35.172Z,38.90
2018-10-12T07:52:03.611Z,42.63
2018-10-12T07:54:32.088Z,37.40
2018-10-12T07:57:06.854Z,40.63
2018-10-12T07:59:35.249Z,39.70
2018-10-12T08:02:03.791Z,39.40
2018-10-12T08:04:32.181Z,36.67
2018-10-12T08:07:01.605Z,42.93
2018-10-12T08:09:30.025Z,39.53
2018-10-12T08:11:58.423Z,37.73
2018-10-12T08:14:26.906Z,40.80
2018-10-12T08:16:55.418Z,37.50
2018-10-12T08:19:23.961Z,34.47
2018-10-12T08:21:52.387Z,39.83
2018-10-12T08:24:21.175Z,34.67
2018-10-12T08:26:49.687Z,34.40
2018-10-12T08:29:18.047Z,33.00
2018-10-12T08:31:46.530Z,34.83
2018-10-12T08:34:15.151Z,33.33
2018-10-12T08:36:43.699Z,37.58
2018-10-12T08:39:12.997Z,29.47
2018-10-12T08:41:41.444Z,31.37
2018-10-12T08:44:10.783Z,28.83
2018-10-12T08:46:39.166Z,32.27
2018-10-12T08:49:07.624Z,31.05
2018-10-12T08:51:36.141Z,32.00
2018-10-12T08:54:04.580Z,37.07
2018-10-12T08:56:32.989Z,29.60
2018-10-12T08:59:01.669Z,29.87
2018-10-12T09:01:30.313Z,27.83
2018-10-12T09:03:59.543Z,33.60
2018-10-12T09:06:28.636Z,25.80
2018-10-12T09:08:57.630Z,30.23
2018-10-12T09:11:26.000Z,31.70
2018-10-12T09:13:54.478Z,28.23
2018-10-12T09:16:23.005Z,32.27
2018-10-12T09:18:51.266Z,29.70
2018-10-12T09:21:19.744Z,27.67
2018-10-12T09:23:48.226Z,30.82
2018-10-12T09:26:17.324Z,25.40
2018-10-12T09:28:45.786Z,26.95
2018-10-12T09:31:14.217Z,27.60
2018-10-12T09:33:42.606Z,24.90
2018-10-12T09:36:11.016Z,24.33
2018-10-12T09:38:39.380Z,20.23
2018-10-12T09:41:07.903Z,20.27
2018-10-12T09:43:36.240Z,25.03
2018-10-12T09:46:04.628Z,20.80
2018-10-12T09:48:33.001Z,20.93
2018-10-12T09:51:01.483Z,17.60
2018-10-12T09:53:29.873Z,18.13
2018-10-12T09:55:58.296Z,17.98
2018-10-12T09:58:26.689Z,16.03
2018-10-12T10:01:00.934Z,14.30
2018-10-12T10:03:34.634Z,16.57
2018-10-12T10:06:03.073Z,17.47
2018-10-12T10:08:32.155Z,17.60
2018-10-12T10:11:00.344Z,16.50
2018-10-12T10:13:28.742Z,14.30
2018-10-12T10:15:57.195Z,15.10
2018-10-12T10:18:25.682Z,16.87
2018-10-12T10:20:54.057Z,17.80
2018-10-12T10:23:22.448Z,11.47
2018-10-12T10:25:50.832Z,15.63
2018-10-12T10:28:19.262Z,11.27
2018-10-12T10:30:47.640Z,14.45
2018-10-12T10:33:16.308Z,11.63
2018-10-12T10:35:44.780Z,13.10
2018-10-12T10:38:13.691Z,11.22
2018-10-12T10:40:42.149Z,9.30
2018-10-12T10:43:10.636Z,13.10
2018-10-12T10:45:39.061Z,7.40
2018-10-12T10:48:07.557Z,7.57
2018-10-12T10:50:35.917Z,10.67
2018-10-12T10:53:04.403Z,10.53
2018-10-12T10:55:32.849Z,11.87
2018-10-12T10:58:01.325Z,9.53
2018-10-12T11:00:29.733Z,10.13
2018-10-12T11:02:58.199Z,8.23
2018-10-12T11:05:26.589Z,9.35
2018-10-12T11:07:54.992Z,11.00
2018-10-12T11:10:23.385Z,8.07
2018-10-12T11:12:52.800Z,6.13
2018-10-12T11:15:21.113Z,10.50
2018-10-12T11:17:49.552Z,6.93
2018-10-12T11:20:18.047Z,10.03
2018-10-12T11:22:46.545Z,6.73
2018-10-12T11:25:14.978Z,8.97
2018-10-12T11:27:43.469Z,10.20
2018-10-12T11:30:12.249Z,8.83
2018-10-12T11:32:40.729Z,7.50
2018-10-12T11:35:09.212Z,11.10
2018-10-12T11:37:37.631Z,7.58
2018-10-12T11:40:06.292Z,5.43
2018-10-12T11:43:40.508Z,7.72
2018-10-12T11:46:08.933Z,7.25
2018-10-12T11:48:37.356Z,7.20
2018-10-12T11:51:05.767Z,6.42
2018-10-12T11:53:34.152Z,7.42
2018-10-12T11:56:02.629Z,8.33
2018-10-12T11:58:31.533Z,6.47
2018-10-12T12:01:00.643Z,8.00
2018-10-12T12:03:29.156Z,5.37
2018-10-12T12:05:57.639Z,6.63
2018-10-12T12:08:26.043Z,5.43
2018-10-12T12:10:54.501Z,5.23
2018-10-12T12:13:23.023Z,6.37
2018-10-12T12:15:51.433Z,9.00
2018-10-12T12:18:20.507Z,5.93
2018-10-12T12:20:49.065Z,9.30
2018-10-12T12:23:17.433Z,4.58
2018-10-12T12:25:46.061Z,4.70
2018-10-12T12:28:14.438Z,6.40
2018-10-12T12:30:42.896Z,4.97
2018-10-12T12:33:11.291Z,4.00
2018-10-12T12:35:40.082Z,7.10
2018-10-12T12:38:08.130Z,6.13
2018-10-12T12:40:36.562Z,5.57
2018-10-12T12:43:05.059Z,5.03
2018-10-12T12:45:33.486Z,5.00
2018-10-12T12:48:01.916Z,8.70
2018-10-12T12:50:30.277Z,9.77
2018-10-12T12:52:58.712Z,4.47
2018-10-12T12:55:27.113Z,4.63
2018-10-12T12:57:55.734Z,10.20
2018-10-12T13:00:24.314Z,5.43
2018-10-12T13:02:52.789Z,10.13
2018-10-12T13:05:21.252Z,7.40
2018-10-12T13:07:49.627Z,7.43
2018-10-12T13:10:18.002Z,4.83
2018-10-12T13:12:47.230Z,8.60
2018-10-12T13:15:15.670Z,6.43
2018-10-12T13:17:44.094Z,9.60
2018-10-12T13:20:12.560Z,6.37
2018-10-12T13:22:41.110Z,6.33
2018-10-12T13:25:15.849Z,5.97
2018-10-12T13:27:44.288Z,4.87
2018-10-12T13:30:12.656Z,7.25
2018-10-12T13:32:41.103Z,6.90
2018-10-12T13:35:09.536Z,7.57
2018-10-12T13:37:39.046Z,6.50
2018-10-12T13:40:10.409Z,5.03
2018-10-12T13:42:39.778Z,7.00
2018-10-12T13:45:08.262Z,5.80
2018-10-12T13:47:36.682Z,14.00
2018-10-12T13:50:05.248Z,5.40
2018-10-12T13:52:33.676Z,6.28
2018-10-12T13:55:02.090Z,5.70
2018-10-12T13:57:30.507Z,12.00
2018-10-12T13:59:59.001Z,8.80
2018-10-12T14:02:27.447Z,4.90
2018-10-12T14:04:55.817Z,8.60
2018-10-12T14:07:24.211Z,5.43
2018-10-12T14:09:52.683Z,4.67
2018-10-12T14:12:21.090Z,6.60
2018-10-12T14:14:49.470Z,4.65
2018-10-12T14:17:17.819Z,5.37
2018-10-12T14:19:46.857Z,6.37
2018-10-12T14:22:15.299Z,10.53
2018-10-12T14:24:43.778Z,5.95
2018-10-12T14:27:12.145Z,6.50
2018-10-12T14:29:40.518Z,5.07
2018-10-12T14:32:08.899Z,5.37
2018-10-12T14:34:37.288Z,5.23
2018-10-12T14:37:05.928Z,5.50
2018-10-12T14:39:34.347Z,7.53
2018-10-12T14:42:02.756Z,5.97
2018-10-12T14:44:31.152Z,7.03
2018-10-12T14:46:59.580Z,5.50
2018-10-12T14:49:27.988Z,5.43
2018-10-12T14:51:56.422Z,6.92
2018-10-12T14:54:25.693Z,4.47
2018-10-12T14:56:54.101Z,6.43
2018-10-12T14:59:22.585Z,12.40
2018-10-12T15:01:51.034Z,7.30
2018-10-12T15:04:19.425Z,7.53
2018-10-12T15:06:47.927Z,4.80
2018-10-12T15:09:16.604Z,4.90
2018-10-12T15:11:45.126Z,4.87
2018-10-12T15:14:13.553Z,7.47
2018-10-12T15:16:41.953Z,6.40
2018-10-12T15:19:10.341Z,6.92
2018-10-12T15:21:38.758Z,3.70
2018-10-12T15:24:07.364Z,8.20
2018-10-12T15:26:35.805Z,5.93
2018-10-12T15:29:05.435Z,6.50
2018-10-12T15:31:33.905Z,7.40
2018-10-12T15:34:02.258Z,8.20
2018-10-12T15:36:30.906Z,4.37
2018-10-12T15:38:59.329Z,3.23
2018-10-12T15:41:27.898Z,5.90
2018-10-12T15:43:56.259Z,7.53
2018-10-12T15:46:24.820Z,5.37
2018-10-12T15:48:53.326Z,4.57
2018-10-12T15:51:21.813Z,7.67
2018-10-12T15:53:50.465Z,7.33
2018-10-12T15:56:18.857Z,6.83
2018-10-12T15:58:47.351Z,3.43
2018-10-12T16:01:15.757Z,8.80
2018-10-12T16:03:44.231Z,6.03
2018-10-12T16:06:12.811Z,3.90
2018-10-12T16:08:41.752Z,3.50
2018-10-12T16:11:10.299Z,3.90
2018-10-12T16:13:38.824Z,4.80
2018-10-12T16:16:07.286Z,6.63
2018-10-12T16:18:35.697Z,3.60
2018-10-12T16:21:04.149Z,4.17
2018-10-12T16:23:32.717Z,5.60
2018-10-12T16:26:13.268Z,4.40
2018-10-12T16:28:41.649Z,4.37
2018-10-12T16:31:10.092Z,6.23
2018-10-12T16:33:45.239Z,4.80
2018-10-12T16:36:14.149Z,3.50
2018-10-12T16:38:42.533Z,7.20
2018-10-12T16:41:10.934Z,5.20
2018-10-12T16:43:39.344Z,3.33
2018-10-12T16:46:07.845Z,3.77
2018-10-12T16:48:36.243Z,3.47
2018-10-12T16:51:04.812Z,6.30
2018-10-12T16:53:33.223Z,4.17
2018-10-12T16:56:01.739Z,3.37
2018-10-12T16:58:31.176Z,6.77
2018-10-12T17:00:59.565Z,6.67
2018-10-12T17:03:30.135Z,7.33
2018-10-12T17:06:02.096Z,3.35
2018-10-12T17:08:30.519Z,5.17
2018-10-12T17:10:58.938Z,8.57
2018-10-12T17:13:27.369Z,5.23
2018-10-12T17:15:55.813Z,7.30
2018-10-12T17:18:24.419Z,5.83
2018-10-12T17:20:52.776Z,6.03
2018-10-12T17:23:21.209Z,5.53
2018-10-12T17:25:49.636Z,10.38
2018-10-12T17:28:18.085Z,7.50
2018-10-12T17:30:46.520Z,16.70
2018-10-12T17:33:20.069Z,10.50
2018-10-12T17:35:48.536Z,5.28
2018-10-12T17:38:16.955Z,6.17
2018-10-12T17:40:45.303Z,5.67
2018-10-12T17:43:13.689Z,5.12
2018-10-12T17:45:42.151Z,7.03
2018-10-12T17:48:10.629Z,5.43
2018-10-12T17:50:39.120Z,5.17
2018-10-12T17:53:07.641Z,6.20
2018-10-12T17:55:36.077Z,4.77
2018-10-12T17:58:04.545Z,7.77
2018-10-12T18:00:33.758Z,13.37
2018-10-12T18:03:04.479Z,7.37
2018-10-12T18:05:33.669Z,7.33
2018-10-12T18:08:02.213Z,5.20
2018-10-12T18:10:31.210Z,5.40
2018-10-12T18:13:00.137Z,6.57
2018-10-12T18:15:28.495Z,11.27
2018-10-12T18:17:56.890Z,6.00
2018-10-12T18:20:26.384Z,4.67
2018-10-12T18:22:54.972Z,6.20
2018-10-12T18:25:23.450Z,6.13
2018-10-12T18:27:54.780Z,4.23
2018-10-12T18:30:23.204Z,5.67
2018-10-12T18:32:52.930Z,6.22
2018-10-12T18:35:23.643Z,10.43
2018-10-12T18:37:52.061Z,6.20
2018-10-12T18:40:20.540Z,6.20
2018-10-12T18:42:49.359Z,9.23
2018-10-12T18:45:17.753Z,7.37
2018-10-12T18:47:46.337Z,5.40
2018-10-12T18:50:14.716Z,9.00
2018-10-12T18:52:43.126Z,5.30
2018-10-12T18:55:11.561Z,6.28
2018-10-12T18:57:40.025Z,9.13
2018-10-12T19:05:09.930Z,5.37
2018-10-12T19:07:39.169Z,9.80
2018-10-12T19:10:07.756Z,6.83
2018-10-12T19:12:36.410Z,5.50
2018-10-12T19:15:05.152Z,8.13
2018-10-12T19:17:33.562Z,6.60
2018-10-12T19:20:01.983Z,7.20
2018-10-12T19:22:30.503Z,10.23
2018-10-12T19:24:58.904Z,4.97
2018-10-12T19:27:27.701Z,7.28
2018-10-12T19:29:56.305Z,5.60
2018-10-12T19:32:28.126Z,7.23
2018-10-12T19:34:56.677Z,5.67
2018-10-12T19:37:25.168Z,9.90
2018-10-12T19:39:53.802Z,11.80
2018-10-12T19:42:22.259Z,6.47
2018-10-12T19:44:50.726Z,7.27
2018-10-12T19:47:19.271Z,9.70
2018-10-12T19:49:48.705Z,5.83
2018-10-12T19:52:17.250Z,5.87
2018-10-12T19:54:45.733Z,11.50
2018-10-12T19:57:14.195Z,9.00
2018-10-12T19:59:42.735Z,6.30
2018-10-12T20:02:11.905Z,6.83
2018-10-12T20:04:40.347Z,6.17
2018-10-12T20:07:09.886Z,11.77
2018-10-12T20:09:38.412Z,7.70
2018-10-12T20:12:06.971Z,9.97
2018-10-12T20:14:35.497Z,6.83
2018-10-12T20:17:03.986Z,6.80
2018-10-12T20:19:32.468Z,7.40
2018-10-12T20:22:01.028Z,7.10
2018-10-12T20:24:29.554Z,11.80
2018-10-12T20:26:58.076Z,6.63
2018-10-12T20:29:57.147Z,8.93
2018-10-12T20:32:25.589Z,11.00
2018-10-12T20:34:54.161Z,6.40
2018-10-12T20:37:24.536Z,11.15
2018-10-12T20:39:54.557Z,7.40
2018-10-12T20:42:23.477Z,7.23
2018-10-12T20:44:54.872Z,7.72
2018-10-12T20:47:24.828Z,6.73
2018-10-12T20:49:54.410Z,6.07
2018-10-12T20:52:22.966Z,7.00
2018-10-12T20:54:51.521Z,7.50
2018-10-12T20:57:20.198Z,7.30
2018-10-12T20:59:48.600Z,9.83
2018-10-12T21:02:17.400Z,7.70
2018-10-12T21:04:45.844Z,9.93
2018-10-12T21:07:14.378Z,7.77
2018-10-12T21:09:42.870Z,8.80
2018-10-12T21:12:11.713Z,7.60
2018-10-12T21:14:40.161Z,9.10
2018-10-12T21:17:09.534Z,9.00
2018-10-12T21:19:37.998Z,7.50
2018-10-12T21:22:06.517Z,9.10
2018-10-12T21:24:35.122Z,8.57
2018-10-12T21:27:03.673Z,8.00
2018-10-12T21:29:32.078Z,11.40
2018-10-12T21:32:00.564Z,7.67
2018-10-12T21:34:29.029Z,7.30
2018-10-12T21:36:57.476Z,7.97
2018-10-12T21:39:25.958Z,7.00
2018-10-12T21:41:54.616Z,7.00
2018-10-12T21:44:23.275Z,7.00
2018-10-12T21:46:52.318Z,9.03
2018-10-12T21:49:20.767Z,9.83
2018-10-12T21:51:49.165Z,9.20
2018-10-12T21:54:17.597Z,7.60
2018-10-12T21:56:46.045Z,7.70
2018-10-12T21:59:14.509Z,8.70
2018-10-12T22:01:42.942Z,9.67
2018-10-12T22:04:11.330Z,7.00
2018-10-12T22:06:39.988Z,7.72
2018-10-12T22:14:04.093Z,8.20
2018-10-12T22:16:32.494Z,11.43
2018-10-12T22:19:01.033Z,9.90
2018-10-12T22:21:30.110Z,8.57
2018-10-12T22:23:58.528Z,11.97
2018-10-12T22:26:27.719Z,9.20
2018-10-12T22:28:56.143Z,10.20
2018-10-12T22:31:24.880Z,9.23
2018-10-12T22:33:53.493Z,8.53
2018-10-12T22:36:21.903Z,9.30
2018-10-12T22:38:50.284Z,8.10
2018-10-12T22:41:18.762Z,8.50
2018-10-12T22:43:47.206Z,12.00
2018-10-12T22:46:15.620Z,11.55
2018-10-12T22:48:44.033Z,10.63
2018-10-12T22:51:12.563Z,12.43
2018-10-12T22:53:41.026Z,7.70
2018-10-12T22:56:09.437Z,9.60
2018-10-12T22:58:37.920Z,9.58
2018-10-12T23:01:06.747Z,9.13
2018-10-12T23:03:35.164Z,10.70
2018-10-12T23:06:03.597Z,11.68
2018-10-12T23:08:31.966Z,10.47
2018-10-12T23:11:00.366Z,9.73
2018-10-12T23:13:28.745Z,14.20
2018-10-12T23:15:57.292Z,13.35
2018-10-12T23:18:25.686Z,9.33
2018-10-12T23:20:54.034Z,10.33
2018-10-12T23:23:22.466Z,9.43
2018-10-12T23:25:50.885Z,10.77
2018-10-12T23:28:19.357Z,9.43
2018-10-12T23:30:47.720Z,9.23
2018-10-12T23:33:27.402Z,9.55
2018-10-12T23:35:55.869Z,8.27
2018-10-12T23:38:24.621Z,8.80
2018-10-12T23:40:52.984Z,9.43
2018-10-12T23:43:21.420Z,10.70
2018-10-12T23:45:49.824Z,9.17
2018-10-12T23:48:18.317Z,10.67
2018-10-12T23:50:46.737Z,8.30
2018-10-12T23:53:15.199Z,9.30
2018-10-12T23:55:44.557Z,11.33
2018-10-12T23:58:13.253Z,8.80
